ADDS METAR Data INFO
IDs: Format: Raw Decoded Include TAF

Data at: 1538 UTC 25 Feb 2018

KITR 251453Z AUTO 25010KT 10SM CLR M05/M10 A2994 RMK AO2 SLP171 T10501100 53020
KITR 251353Z AUTO 25008KT 10SM CLR M08/M12 A2992 RMK AO2 SLP164 T10781122
KITR 251253Z AUTO 25010KT 10SM CLR M08/M12 A2989 RMK AO2 SLP156 T10831122
KITR 251153Z AUTO 24009KT 10SM CLR M08/M12 A2988 RMK AO2 SLP142 T10781122 11072 21100 55004
KITR 251053Z AUTO 23007KT 10SM CLR M08/M11 A2986 RMK AO2 SLP132 T10781111
KITR 250953Z AUTO 23006KT 10SM CLR M08/M12 A2988 RMK AO2 SLP137 T10831117
KITR 250853Z AUTO 24006KT 10SM FEW120 M09/M13 A2989 RMK AO2 SLP146 T10941128 50003
KITR 250753Z AUTO 24006KT 10SM CLR M09/M13 A2990 RMK AO2 SLP151 T10941128
KITR 250653Z AUTO 24006KT 10SM CLR M09/M13 A2991 RMK AO2 SLP152 T10941128 400501100
KITR 250553Z AUTO 26006KT 10SM CLR M09/M12 A2988 RMK AO2 SLP146 T10941122 10022 21094 51008
KITR 250453Z AUTO 26004KT 10SM CLR M08/M12 A2987 RMK AO2 SLP142 T10781117
KITR 250353Z AUTO 21003KT 10SM CLR M07/M12 A2987 RMK AO2 SLP147 T10721117
KITR 250253Z AUTO 36006KT 10SM CLR M04/M12 A2986 RMK AO2 SLP136 T10391122 51020
KITR 250153Z AUTO 35007KT 10SM CLR M03/M12 A2984 RMK AO2 SLP132 T10281122
KITR 250053Z AUTO 03006KT 10SM CLR M02/M11 A2981 RMK AO2 SLP118 T10171111
KITR 242353Z AUTO 36012KT 10SM CLR 02/M11 A2979 RMK AO2 SLP106 T00221111 10050 20022 53013
KITR 242253Z AUTO 35013G21KT 10SM CLR 04/M12 A2977 RMK AO2 SLP094 T00391122
KITR 242153Z AUTO 33017G26KT 10SM CLR 05/M11 A2976 RMK AO2 PK WND 34028/2126 SLP087 T00501111
KITR 242053Z AUTO 32018G28KT 10SM SCT070 04/M10 A2975 RMK AO2 PK WND 31028/2049 SLP086 T00441100 58008
KITR 241953Z AUTO 29014G25KT 10SM SCT055 04/M08 A2976 RMK AO2 PK WND 30029/1910 SLP091 T00391078
KITR 241853Z AUTO 31018G25KT 10SM CLR 03/M08 A2977 RMK AO2 PK WND 31031/1824 SLP096 T00331078
KITR 241753Z AUTO 32019G29KT 10SM CLR 02/M08 A2977 RMK AO2 PK WND 33029/1745 SLP102 60000 T00221078 10022 21044 58005
KITR 241653Z AUTO 32020G25KT 10SM CLR 01/M05 A2978 RMK AO2 SLP107 T00061050
KITR 241553Z AUTO 31016KT 6SM BR FEW060 BKN090 M02/M04 A2979 RMK AO2 SNB08E18 SLP111 P0000 T10171039
KITR 241507Z AUTO 27012KT 8SM SCT010 BKN032 OVC080 M02/M03 A2979 RMK AO2 T10221033
KITR 241453Z AUTO 24009KT 10SM BKN009 OVC085 M03/M03 A2979 RMK AO2 SNB26E36 SLP111 P0000 60000 T10281033 58003
KITR 241353Z AUTO 24013KT 10SM OVC006 M04/M04 A2979 RMK AO2 SLP113 T10391044
KITR 241253Z AUTO 23009KT 10SM OVC008 M04/M06 A2981 RMK AO2 CIG 006V011 SLP120 T10441056
KITR 241153Z AUTO 19009KT 10SM BKN007 OVC016 M04/M05 A2980 RMK AO2 SLP115 I6002 T10441050 11044 21056 58022
KITR 241144Z AUTO 19009KT 10SM BKN007 OVC018 M04/M05 A2981 RMK AO2 T10441050
KITR 241124Z AUTO 20008KT 10SM SCT005 OVC020 M04/M05 A2982 RMK AO2 T10441050
KITR 241053Z AUTO 20009KT 10SM OVC005 M04/M05 A2984 RMK AO2 SLP124 T10441050
KITR 241002Z AUTO 21006KT 8SM OVC005 M04/M05 A2985 RMK AO2 T10441050
KITR 240953Z AUTO 18006KT 8SM BKN004 BKN022 OVC029 M04/M06 A2984 RMK AO2 SLP124 I1000 T10441056
KITR 240921Z AUTO 16007KT 6SM BR SCT004 OVC021 M05/M06 A2986 RMK AO2 T10501056
KITR 240853Z AUTO 15007KT 3SM BR OVC006 M05/M06 A2987 RMK AO2 PRESFR SLP140 I1001 I3002 T10501056 57026
KITR 240824Z AUTO 19005KT 5SM BR OVC005 M05/M06 A2990 RMK AO2 T10501056
KITR 240812Z AUTO 18006KT 5SM BR OVC004 M05/M06 A2990 RMK AO2 CIG 003V007 T10501056
KITR 240753Z AUTO 17007KT 5SM BR OVC003 M05/M06 A2991 RMK AO2 SLP156 I1001 T10501056
KITR 240738Z AUTO 15007KT 3SM BR OVC002 M05/M06 A2991 RMK AO2 I1001 T10501056
KITR 240723Z AUTO 15007KT 1 3/4SM BR OVC003 M05/M06 A2991 RMK AO2 I1000 T10501056
KITR 240653Z AUTO 14007KT 7SM OVC003 M05/M06 A2992 RMK AO2 SLP157 T10501056 400171128
KITR 240553Z AUTO 13006KT 8SM OVC004 M06/M06 A2996 RMK AO2 SLP171 T10561061 11022 21056 58001
KITR 240514Z AUTO 13008KT 8SM OVC004 M06/M06 A2997 RMK AO2 T10561061
KITR 240453Z AUTO 13010KT 9SM OVC006 M05/M06 A2997 RMK AO2 SLP178 T10501061
KITR 240353Z AUTO 14012KT 10SM OVC009 M04/M06 A2998 RMK AO2 SLP179 T10391056